Lakeshore, Louisiana
Current Conditions -  °F | °C
As of 6:53 PM on Saturday 22 Nov 2014 (Local Time) from KMLU Reporting Station
Broken Clouds Broken Clouds  
Wind Chill: 64°   Ceiling: 4000
Heat Index: 64°   Visibility: 10mi
Dew Point: 56°   Wind: 3mph
Humidity: 75%   Direction: NA
Pressure: 29.97"   Gusts: NA
Location:  32.5973°N, 92.0151°W
Report Text: KMLU 230053Z VRB03KT 10SM BKN040 BKN050 BKN055 18/13 A2997 RMK AO2 SLP149 T01780133
Loading
Personal Weather Stations






























Interactive Weather Map New forecast layout! Learn more

10-Day Weather Forecast

Advertisements
Track Severe Weather on mobile